sensor_id;sensor_type;location;lat;lon;timestamp;P1;durP1;ratioP1;P2;durP2;ratioP2
41689;SDS011;27372;42.658;23.256;2024-01-10T00:06:44;8.77;;;4.88;;
41689;SDS011;27372;42.658;23.256;2024-01-10T00:09:10;10.90;;;5.07;;
41689;SDS011;27372;42.658;23.256;2024-01-10T00:14:39;11.05;;;5.63;;
41689;SDS011;27372;42.658;23.256;2024-01-10T00:17:04;9.13;;;4.65;;
41689;SDS011;27372;42.658;23.256;2024-01-10T00:19:30;8.57;;;4.82;;
41689;SDS011;27372;42.658;23.256;2024-01-10T00:21:55;7.57;;;4.78;;
41689;SDS011;27372;42.658;23.256;2024-01-10T00:24:21;9.20;;;4.88;;
41689;SDS011;27372;42.658;23.256;2024-01-10T00:26:46;8.65;;;5.07;;
41689;SDS011;27372;42.658;23.256;2024-01-10T00:29:11;9.90;;;5.55;;
41689;SDS011;27372;42.658;23.256;2024-01-10T00:31:37;10.88;;;4.60;;
41689;SDS011;27372;42.658;23.256;2024-01-10T00:34:02;10.50;;;5.25;;
41689;SDS011;27372;42.658;23.256;2024-01-10T00:36:28;8.50;;;5.15;;
41689;SDS011;27372;42.658;23.256;2024-01-10T00:38:53;7.07;;;4.40;;
41689;SDS011;27372;42.658;23.256;2024-01-10T00:41:18;9.27;;;4.88;;
41689;SDS011;27372;42.658;23.256;2024-01-10T00:43:44;9.07;;;5.00;;
41689;SDS011;27372;42.658;23.256;2024-01-10T00:46:09;9.95;;;5.30;;
41689;SDS011;27372;42.658;23.256;2024-01-10T00:48:35;9.93;;;5.05;;
41689;SDS011;27372;42.658;23.256;2024-01-10T00:51:00;8.52;;;4.50;;
41689;SDS011;27372;42.658;23.256;2024-01-10T00:53:25;10.23;;;5.03;;
41689;SDS011;27372;42.658;23.256;2024-01-10T00:55:51;7.47;;;4.63;;
41689;SDS011;27372;42.658;23.256;2024-01-10T00:58:16;8.63;;;4.45;;
41689;SDS011;27372;42.658;23.256;2024-01-10T01:00:42;7.00;;;3.80;;
41689;SDS011;27372;42.658;23.256;2024-01-10T01:03:07;8.05;;;4.35;;
41689;SDS011;27372;42.658;23.256;2024-01-10T01:05:33;8.63;;;4.43;;
41689;SDS011;27372;42.658;23.256;2024-01-10T01:07:58;7.60;;;3.85;;
41689;SDS011;27372;42.658;23.256;2024-01-10T01:10:23;7.85;;;3.80;;
41689;SDS011;27372;42.658;23.256;2024-01-10T01:12:49;6.60;;;3.28;;
41689;SDS011;27372;42.658;23.256;2024-01-10T01:15:14;6.47;;;4.00;;
41689;SDS011;27372;42.658;23.256;2024-01-10T01:17:40;7.68;;;3.50;;
41689;SDS011;27372;42.658;23.256;2024-01-10T01:20:05;7.03;;;3.90;;
41689;SDS011;27372;42.658;23.256;2024-01-10T01:22:32;6.05;;;3.55;;
41689;SDS011;27372;42.658;23.256;2024-01-10T01:24:57;9.15;;;4.28;;
41689;SDS011;27372;42.658;23.256;2024-01-10T01:27:23;9.00;;;4.20;;
41689;SDS011;27372;42.658;23.256;2024-01-10T01:29:48;9.07;;;4.60;;
41689;SDS011;27372;42.658;23.256;2024-01-10T01:32:14;8.98;;;4.95;;
41689;SDS011;27372;42.658;23.256;2024-01-10T01:34:39;13.98;;;5.15;;
41689;SDS011;27372;42.658;23.256;2024-01-10T01:37:05;9.07;;;5.32;;
41689;SDS011;27372;42.658;23.256;2024-01-10T01:39:30;10.63;;;5.68;;
41689;SDS011;27372;42.658;23.256;2024-01-10T01:41:56;11.13;;;5.50;;
41689;SDS011;27372;42.658;23.256;2024-01-10T01:44:21;9.25;;;4.47;;
41689;SDS011;27372;42.658;23.256;2024-01-10T01:46:47;10.32;;;5.63;;
41689;SDS011;27372;42.658;23.256;2024-01-10T01:49:13;8.90;;;4.75;;
41689;SDS011;27372;42.658;23.256;2024-01-10T01:51:39;11.82;;;5.15;;
41689;SDS011;27372;42.658;23.256;2024-01-10T01:54:06;9.23;;;4.45;;
41689;SDS011;27372;42.658;23.256;2024-01-10T01:56:39;9.75;;;4.70;;
41689;SDS011;27372;42.658;23.256;2024-01-10T01:59:05;8.07;;;4.68;;
41689;SDS011;27372;42.658;23.256;2024-01-10T02:01:31;7.32;;;3.92;;
41689;SDS011;27372;42.658;23.256;2024-01-10T02:03:57;8.27;;;4.25;;
41689;SDS011;27372;42.658;23.256;2024-01-10T02:06:23;7.78;;;3.75;;
41689;SDS011;27372;42.658;23.256;2024-01-10T02:08:49;8.13;;;4.05;;
41689;SDS011;27372;42.658;23.256;2024-01-10T02:11:14;12.90;;;4.60;;
41689;SDS011;27372;42.658;23.256;2024-01-10T02:13:40;9.95;;;4.50;;
41689;SDS011;27372;42.658;23.256;2024-01-10T02:16:06;10.73;;;4.38;;
41689;SDS011;27372;42.658;23.256;2024-01-10T02:18:32;8.98;;;4.18;;
41689;SDS011;27372;42.658;23.256;2024-01-10T02:20:59;10.07;;;4.22;;
41689;SDS011;27372;42.658;23.256;2024-01-10T02:23:25;10.73;;;4.65;;
41689;SDS011;27372;42.658;23.256;2024-01-10T02:25:50;6.75;;;3.72;;
41689;SDS011;27372;42.658;23.256;2024-01-10T02:28:16;10.43;;;4.35;;
41689;SDS011;27372;42.658;23.256;2024-01-10T02:30:41;8.55;;;4.63;;
41689;SDS011;27372;42.658;23.256;2024-01-10T02:33:07;9.48;;;3.53;;
41689;SDS011;27372;42.658;23.256;2024-01-10T02:35:32;5.82;;;3.10;;
41689;SDS011;27372;42.658;23.256;2024-01-10T02:37:58;7.07;;;3.63;;
41689;SDS011;27372;42.658;23.256;2024-01-10T02:40:24;6.65;;;3.40;;
41689;SDS011;27372;42.658;23.256;2024-01-10T02:42:50;6.53;;;3.30;;
41689;SDS011;27372;42.658;23.256;2024-01-10T02:45:16;6.15;;;3.00;;
41689;SDS011;27372;42.658;23.256;2024-01-10T02:47:42;7.63;;;3.42;;
41689;SDS011;27372;42.658;23.256;2024-01-10T02:50:07;7.20;;;3.47;;
41689;SDS011;27372;42.658;23.256;2024-01-10T02:52:33;9.18;;;4.20;;
41689;SDS011;27372;42.658;23.256;2024-01-10T02:54:58;7.57;;;3.80;;
41689;SDS011;27372;42.658;23.256;2024-01-10T02:57:23;6.82;;;3.17;;
41689;SDS011;27372;42.658;23.256;2024-01-10T02:59:49;6.97;;;3.00;;
41689;SDS011;27372;42.658;23.256;2024-01-10T03:02:14;4.97;;;2.78;;
41689;SDS011;27372;42.658;23.256;2024-01-10T03:04:40;5.72;;;3.38;;
41689;SDS011;27372;42.658;23.256;2024-01-10T03:07:06;8.65;;;3.28;;
41689;SDS011;27372;42.658;23.256;2024-01-10T03:09:31;6.55;;;3.40;;
41689;SDS011;27372;42.658;23.256;2024-01-10T03:11:57;6.72;;;3.08;;
41689;SDS011;27372;42.658;23.256;2024-01-10T03:14:22;8.50;;;3.72;;
41689;SDS011;27372;42.658;23.256;2024-01-10T03:16:48;22.35;;;8.57;;
41689;SDS011;27372;42.658;23.256;2024-01-10T03:19:13;38.58;;;14.63;;
41689;SDS011;27372;42.658;23.256;2024-01-10T03:21:39;44.53;;;15.52;;
41689;SDS011;27372;42.658;23.256;2024-01-10T03:24:04;18.58;;;6.90;;
41689;SDS011;27372;42.658;23.256;2024-01-10T03:26:30;9.98;;;3.58;;
41689;SDS011;27372;42.658;23.256;2024-01-10T03:28:56;6.25;;;3.38;;
41689;SDS011;27372;42.658;23.256;2024-01-10T03:31:22;9.60;;;4.07;;
41689;SDS011;27372;42.658;23.256;2024-01-10T03:33:47;14.27;;;4.30;;
41689;SDS011;27372;42.658;23.256;2024-01-10T03:36:15;9.60;;;4.70;;
41689;SDS011;27372;42.658;23.256;2024-01-10T03:38:41;10.30;;;4.80;;
41689;SDS011;27372;42.658;23.256;2024-01-10T03:41:08;13.02;;;4.32;;
41689;SDS011;27372;42.658;23.256;2024-01-10T03:43:38;8.40;;;3.78;;
41689;SDS011;27372;42.658;23.256;2024-01-10T03:46:03;15.15;;;5.00;;
41689;SDS011;27372;42.658;23.256;2024-01-10T03:48:29;9.95;;;5.20;;
41689;SDS011;27372;42.658;23.256;2024-01-10T03:50:54;10.45;;;5.25;;
41689;SDS011;27372;42.658;23.256;2024-01-10T03:53:19;11.00;;;5.13;;
41689;SDS011;27372;42.658;23.256;2024-01-10T03:55:45;9.20;;;4.85;;
41689;SDS011;27372;42.658;23.256;2024-01-10T03:58:10;5.80;;;2.78;;
41689;SDS011;27372;42.658;23.256;2024-01-10T04:00:35;7.25;;;4.22;;
41689;SDS011;27372;42.658;23.256;2024-01-10T04:03:01;7.88;;;3.67;;
41689;SDS011;27372;42.658;23.256;2024-01-10T04:05:27;13.07;;;5.53;;
41689;SDS011;27372;42.658;23.256;2024-01-10T04:07:53;8.20;;;4.18;;
41689;SDS011;27372;42.658;23.256;2024-01-10T04:10:18;10.25;;;3.88;;
41689;SDS011;27372;42.658;23.256;2024-01-10T04:12:44;6.38;;;3.40;;
41689;SDS011;27372;42.658;23.256;2024-01-10T04:15:10;8.45;;;3.60;;
41689;SDS011;27372;42.658;23.256;2024-01-10T04:17:36;5.13;;;2.78;;
41689;SDS011;27372;42.658;23.256;2024-01-10T04:20:01;5.80;;;2.80;;
41689;SDS011;27372;42.658;23.256;2024-01-10T04:22:28;5.63;;;3.15;;
41689;SDS011;27372;42.658;23.256;2024-01-10T04:24:53;5.90;;;3.15;;
41689;SDS011;27372;42.658;23.256;2024-01-10T04:27:18;6.43;;;3.05;;
41689;SDS011;27372;42.658;23.256;2024-01-10T04:29:44;6.75;;;2.95;;
41689;SDS011;27372;42.658;23.256;2024-01-10T04:32:10;6.78;;;3.30;;
41689;SDS011;27372;42.658;23.256;2024-01-10T04:34:35;6.88;;;3.03;;
41689;SDS011;27372;42.658;23.256;2024-01-10T04:37:01;6.68;;;2.83;;
41689;SDS011;27372;42.658;23.256;2024-01-10T04:39:26;5.72;;;2.78;;
41689;SDS011;27372;42.658;23.256;2024-01-10T04:41:52;6.50;;;2.95;;
41689;SDS011;27372;42.658;23.256;2024-01-10T04:44:17;4.90;;;3.05;;
41689;SDS011;27372;42.658;23.256;2024-01-10T04:46:43;6.07;;;2.88;;
41689;SDS011;27372;42.658;23.256;2024-01-10T04:49:08;5.60;;;2.90;;
41689;SDS011;27372;42.658;23.256;2024-01-10T04:51:34;8.80;;;3.28;;
41689;SDS011;27372;42.658;23.256;2024-01-10T04:53:59;3.75;;;2.70;;
41689;SDS011;27372;42.658;23.256;2024-01-10T04:56:25;4.63;;;3.00;;
41689;SDS011;27372;42.658;23.256;2024-01-10T04:58:51;8.30;;;3.35;;
41689;SDS011;27372;42.658;23.256;2024-01-10T05:01:16;5.38;;;3.00;;
41689;SDS011;27372;42.658;23.256;2024-01-10T05:03:42;6.43;;;3.40;;
41689;SDS011;27372;42.658;23.256;2024-01-10T05:06:07;6.32;;;2.85;;
41689;SDS011;27372;42.658;23.256;2024-01-10T05:08:32;9.35;;;3.65;;
41689;SDS011;27372;42.658;23.256;2024-01-10T05:10:58;5.28;;;3.00;;
41689;SDS011;27372;42.658;23.256;2024-01-10T05:13:23;5.60;;;3.17;;
41689;SDS011;27372;42.658;23.256;2024-01-10T05:15:49;7.82;;;3.50;;
41689;SDS011;27372;42.658;23.256;2024-01-10T05:18:21;10.95;;;4.70;;
41689;SDS011;27372;42.658;23.256;2024-01-10T05:20:47;7.60;;;3.60;;
41689;SDS011;27372;42.658;23.256;2024-01-10T05:23:13;6.28;;;3.47;;
41689;SDS011;27372;42.658;23.256;2024-01-10T05:25:38;8.05;;;3.50;;
41689;SDS011;27372;42.658;23.256;2024-01-10T05:28:04;6.93;;;3.10;;
41689;SDS011;27372;42.658;23.256;2024-01-10T05:30:29;4.60;;;2.72;;
41689;SDS011;27372;42.658;23.256;2024-01-10T05:32:55;6.68;;;3.33;;
41689;SDS011;27372;42.658;23.256;2024-01-10T05:35:20;6.97;;;3.15;;
41689;SDS011;27372;42.658;23.256;2024-01-10T05:37:46;4.68;;;2.95;;
41689;SDS011;27372;42.658;23.256;2024-01-10T05:40:11;5.85;;;3.00;;
41689;SDS011;27372;42.658;23.256;2024-01-10T05:42:37;5.85;;;3.05;;
41689;SDS011;27372;42.658;23.256;2024-01-10T05:45:03;7.43;;;3.30;;
41689;SDS011;27372;42.658;23.256;2024-01-10T05:47:29;7.15;;;3.55;;
41689;SDS011;27372;42.658;23.256;2024-01-10T05:49:54;8.98;;;3.65;;
41689;SDS011;27372;42.658;23.256;2024-01-10T05:52:20;7.32;;;3.78;;
41689;SDS011;27372;42.658;23.256;2024-01-10T05:54:47;7.57;;;3.92;;
41689;SDS011;27372;42.658;23.256;2024-01-10T05:57:13;7.00;;;4.18;;
41689;SDS011;27372;42.658;23.256;2024-01-10T05:59:39;6.85;;;3.10;;
41689;SDS011;27372;42.658;23.256;2024-01-10T06:02:04;11.45;;;4.00;;
41689;SDS011;27372;42.658;23.256;2024-01-10T06:04:29;4.72;;;2.92;;
41689;SDS011;27372;42.658;23.256;2024-01-10T06:06:59;6.00;;;3.05;;
41689;SDS011;27372;42.658;23.256;2024-01-10T06:09:26;6.35;;;3.33;;
41689;SDS011;27372;42.658;23.256;2024-01-10T06:11:51;6.75;;;3.92;;
41689;SDS011;27372;42.658;23.256;2024-01-10T06:14:17;7.25;;;3.50;;
41689;SDS011;27372;42.658;23.256;2024-01-10T06:16:42;8.23;;;4.13;;
41689;SDS011;27372;42.658;23.256;2024-01-10T06:19:10;10.98;;;4.55;;
41689;SDS011;27372;42.658;23.256;2024-01-10T06:21:38;6.80;;;3.67;;
41689;SDS011;27372;42.658;23.256;2024-01-10T06:24:03;8.95;;;4.30;;
41689;SDS011;27372;42.658;23.256;2024-01-10T06:26:29;7.28;;;3.92;;
41689;SDS011;27372;42.658;23.256;2024-01-10T06:28:54;8.55;;;3.88;;
41689;SDS011;27372;42.658;23.256;2024-01-10T06:31:20;10.30;;;4.05;;
41689;SDS011;27372;42.658;23.256;2024-01-10T06:33:45;8.13;;;4.15;;
41689;SDS011;27372;42.658;23.256;2024-01-10T06:36:11;8.85;;;3.78;;
41689;SDS011;27372;42.658;23.256;2024-01-10T06:38:40;7.97;;;4.38;;
41689;SDS011;27372;42.658;23.256;2024-01-10T06:41:08;9.93;;;4.30;;
41689;SDS011;27372;42.658;23.256;2024-01-10T06:43:34;7.80;;;3.67;;
41689;SDS011;27372;42.658;23.256;2024-01-10T06:46:01;6.82;;;3.75;;
41689;SDS011;27372;42.658;23.256;2024-01-10T06:48:28;7.85;;;4.13;;
41689;SDS011;27372;42.658;23.256;2024-01-10T06:50:54;9.10;;;4.45;;
41689;SDS011;27372;42.658;23.256;2024-01-10T06:53:20;9.35;;;4.45;;
41689;SDS011;27372;42.658;23.256;2024-01-10T06:55:46;8.13;;;4.18;;
41689;SDS011;27372;42.658;23.256;2024-01-10T06:58:11;9.43;;;5.20;;
41689;SDS011;27372;42.658;23.256;2024-01-10T07:00:37;12.80;;;6.03;;
41689;SDS011;27372;42.658;23.256;2024-01-10T07:03:03;11.27;;;5.63;;
41689;SDS011;27372;42.658;23.256;2024-01-10T07:05:29;11.35;;;5.45;;
41689;SDS011;27372;42.658;23.256;2024-01-10T07:07:56;11.63;;;5.63;;
41689;SDS011;27372;42.658;23.256;2024-01-10T07:10:22;14.65;;;5.80;;
41689;SDS011;27372;42.658;23.256;2024-01-10T07:12:52;11.13;;;6.43;;
41689;SDS011;27372;42.658;23.256;2024-01-10T07:15:18;12.15;;;5.68;;
41689;SDS011;27372;42.658;23.256;2024-01-10T07:17:43;11.38;;;5.55;;
41689;SDS011;27372;42.658;23.256;2024-01-10T07:20:09;11.45;;;5.53;;
41689;SDS011;27372;42.658;23.256;2024-01-10T07:22:36;12.07;;;6.05;;
41689;SDS011;27372;42.658;23.256;2024-01-10T07:25:04;10.93;;;5.43;;
41689;SDS011;27372;42.658;23.256;2024-01-10T07:27:31;13.00;;;6.35;;
41689;SDS011;27372;42.658;23.256;2024-01-10T07:29:56;17.05;;;6.72;;
41689;SDS011;27372;42.658;23.256;2024-01-10T07:32:22;14.10;;;6.43;;
41689;SDS011;27372;42.658;23.256;2024-01-10T07:34:48;13.32;;;6.40;;
41689;SDS011;27372;42.658;23.256;2024-01-10T07:37:13;14.05;;;5.75;;
41689;SDS011;27372;42.658;23.256;2024-01-10T07:39:41;11.75;;;5.70;;
41689;SDS011;27372;42.658;23.256;2024-01-10T07:42:07;10.98;;;5.40;;
41689;SDS011;27372;42.658;23.256;2024-01-10T07:44:32;11.05;;;5.38;;
41689;SDS011;27372;42.658;23.256;2024-01-10T07:46:58;9.93;;;5.13;;
41689;SDS011;27372;42.658;23.256;2024-01-10T07:49:23;8.73;;;4.25;;
41689;SDS011;27372;42.658;23.256;2024-01-10T07:51:49;9.43;;;4.88;;
41689;SDS011;27372;42.658;23.256;2024-01-10T07:54:15;11.73;;;5.47;;
41689;SDS011;27372;42.658;23.256;2024-01-10T07:56:40;9.95;;;4.40;;
41689;SDS011;27372;42.658;23.256;2024-01-10T07:59:06;10.13;;;4.30;;
41689;SDS011;27372;42.658;23.256;2024-01-10T08:01:32;6.43;;;3.53;;
41689;SDS011;27372;42.658;23.256;2024-01-10T08:03:57;7.88;;;3.90;;
41689;SDS011;27372;42.658;23.256;2024-01-10T08:06:23;9.07;;;3.67;;
41689;SDS011;27372;42.658;23.256;2024-01-10T08:08:48;7.70;;;3.70;;
41689;SDS011;27372;42.658;23.256;2024-01-10T08:11:14;8.55;;;4.07;;
41689;SDS011;27372;42.658;23.256;2024-01-10T08:13:39;7.10;;;3.90;;
41689;SDS011;27372;42.658;23.256;2024-01-10T08:16:05;7.60;;;3.25;;
41689;SDS011;27372;42.658;23.256;2024-01-10T08:18:33;7.25;;;3.58;;
41689;SDS011;27372;42.658;23.256;2024-01-10T08:20:59;5.32;;;2.90;;
41689;SDS011;27372;42.658;23.256;2024-01-10T08:23:24;6.53;;;3.53;;
41689;SDS011;27372;42.658;23.256;2024-01-10T08:25:50;6.30;;;3.55;;
41689;SDS011;27372;42.658;23.256;2024-01-10T08:28:15;13.77;;;4.03;;
41689;SDS011;27372;42.658;23.256;2024-01-10T08:30:41;7.45;;;3.67;;
41689;SDS011;27372;42.658;23.256;2024-01-10T08:33:07;7.38;;;4.07;;
41689;SDS011;27372;42.658;23.256;2024-01-10T08:35:32;7.38;;;4.15;;
41689;SDS011;27372;42.658;23.256;2024-01-10T08:37:58;7.50;;;4.07;;
41689;SDS011;27372;42.658;23.256;2024-01-10T08:40:23;8.32;;;4.50;;
41689;SDS011;27372;42.658;23.256;2024-01-10T08:42:51;7.18;;;4.03;;
41689;SDS011;27372;42.658;23.256;2024-01-10T08:45:17;8.50;;;4.78;;
41689;SDS011;27372;42.658;23.256;2024-01-10T08:47:42;7.82;;;4.30;;
41689;SDS011;27372;42.658;23.256;2024-01-10T08:50:08;9.05;;;4.63;;
41689;SDS011;27372;42.658;23.256;2024-01-10T08:52:35;10.50;;;4.90;;
41689;SDS011;27372;42.658;23.256;2024-01-10T08:55:06;8.13;;;4.63;;
41689;SDS011;27372;42.658;23.256;2024-01-10T08:57:32;8.38;;;4.47;;
41689;SDS011;27372;42.658;23.256;2024-01-10T08:59:58;7.75;;;4.95;;
41689;SDS011;27372;42.658;23.256;2024-01-10T09:02:25;7.95;;;4.78;;
41689;SDS011;27372;42.658;23.256;2024-01-10T09:04:52;9.63;;;5.18;;
41689;SDS011;27372;42.658;23.256;2024-01-10T09:07:18;10.07;;;5.72;;
41689;SDS011;27372;42.658;23.256;2024-01-10T09:09:43;8.23;;;4.60;;
41689;SDS011;27372;42.658;23.256;2024-01-10T09:12:08;7.28;;;4.32;;
41689;SDS011;27372;42.658;23.256;2024-01-10T09:14:34;8.60;;;4.47;;
41689;SDS011;27372;42.658;23.256;2024-01-10T09:16:59;9.85;;;5.15;;
41689;SDS011;27372;42.658;23.256;2024-01-10T09:19:28;10.25;;;4.90;;
41689;SDS011;27372;42.658;23.256;2024-01-10T09:21:54;13.10;;;6.00;;
41689;SDS011;27372;42.658;23.256;2024-01-10T09:24:21;9.50;;;5.47;;
41689;SDS011;27372;42.658;23.256;2024-01-10T09:26:46;8.82;;;5.50;;
41689;SDS011;27372;42.658;23.256;2024-01-10T09:29:12;8.13;;;5.20;;
41689;SDS011;27372;42.658;23.256;2024-01-10T09:31:37;8.35;;;4.97;;
41689;SDS011;27372;42.658;23.256;2024-01-10T09:34:03;11.27;;;6.00;;
41689;SDS011;27372;42.658;23.256;2024-01-10T09:36:28;9.10;;;5.63;;
41689;SDS011;27372;42.658;23.256;2024-01-10T09:38:54;9.48;;;5.57;;
41689;SDS011;27372;42.658;23.256;2024-01-10T09:41:19;9.73;;;5.50;;
41689;SDS011;27372;42.658;23.256;2024-01-10T09:43:44;8.88;;;5.30;;
41689;SDS011;27372;42.658;23.256;2024-01-10T09:46:10;14.57;;;7.75;;
41689;SDS011;27372;42.658;23.256;2024-01-10T09:48:36;13.93;;;7.07;;
41689;SDS011;27372;42.658;23.256;2024-01-10T09:51:02;11.55;;;6.15;;
41689;SDS011;27372;42.658;23.256;2024-01-10T09:53:27;11.52;;;6.55;;
41689;SDS011;27372;42.658;23.256;2024-01-10T09:55:56;15.45;;;6.97;;
41689;SDS011;27372;42.658;23.256;2024-01-10T09:58:25;12.25;;;6.70;;
41689;SDS011;27372;42.658;23.256;2024-01-10T10:00:51;13.10;;;6.82;;
41689;SDS011;27372;42.658;23.256;2024-01-10T10:03:18;11.35;;;6.93;;
41689;SDS011;27372;42.658;23.256;2024-01-10T10:05:44;12.30;;;6.93;;
41689;SDS011;27372;42.658;23.256;2024-01-10T10:08:12;12.63;;;7.32;;
41689;SDS011;27372;42.658;23.256;2024-01-10T10:10:40;15.93;;;7.25;;
41689;SDS011;27372;42.658;23.256;2024-01-10T10:13:09;12.95;;;7.35;;
41689;SDS011;27372;42.658;23.256;2024-01-10T10:15:40;14.60;;;7.10;;
41689;SDS011;27372;42.658;23.256;2024-01-10T10:18:05;16.08;;;8.23;;
41689;SDS011;27372;42.658;23.256;2024-01-10T10:20:31;14.52;;;8.10;;
41689;SDS011;27372;42.658;23.256;2024-01-10T10:25:36;19.95;;;10.82;;
41689;SDS011;27372;42.658;23.256;2024-01-10T10:28:07;14.90;;;8.60;;
41689;SDS011;27372;42.658;23.256;2024-01-10T10:30:33;14.82;;;8.07;;
41689;SDS011;27372;42.658;23.256;2024-01-10T10:32:58;15.23;;;9.02;;
41689;SDS011;27372;42.658;23.256;2024-01-10T10:35:24;15.75;;;9.13;;
41689;SDS011;27372;42.658;23.256;2024-01-10T10:37:51;12.35;;;7.30;;
41689;SDS011;27372;42.658;23.256;2024-01-10T10:40:18;22.33;;;11.38;;
41689;SDS011;27372;42.658;23.256;2024-01-10T10:42:47;18.30;;;9.52;;
41689;SDS011;27372;42.658;23.256;2024-01-10T10:45:17;14.32;;;6.97;;
41689;SDS011;27372;42.658;23.256;2024-01-10T10:47:44;12.13;;;6.95;;
41689;SDS011;27372;42.658;23.256;2024-01-10T10:50:17;11.35;;;7.10;;
41689;SDS011;27372;42.658;23.256;2024-01-10T10:52:46;10.10;;;5.97;;
41689;SDS011;27372;42.658;23.256;2024-01-10T10:55:13;12.70;;;7.30;;
41689;SDS011;27372;42.658;23.256;2024-01-10T10:57:41;17.57;;;7.80;;
41689;SDS011;27372;42.658;23.256;2024-01-10T11:00:09;12.38;;;7.45;;
41689;SDS011;27372;42.658;23.256;2024-01-10T11:02:40;10.68;;;6.45;;
41689;SDS011;27372;42.658;23.256;2024-01-10T11:05:06;11.82;;;6.90;;
41689;SDS011;27372;42.658;23.256;2024-01-10T11:07:35;13.43;;;7.10;;
41689;SDS011;27372;42.658;23.256;2024-01-10T11:10:01;17.38;;;8.45;;
41689;SDS011;27372;42.658;23.256;2024-01-10T11:18:33;28.38;;;14.90;;
41689;SDS011;27372;42.658;23.256;2024-01-10T11:21:24;16.40;;;9.27;;
41689;SDS011;27372;42.658;23.256;2024-01-10T11:24:03;15.45;;;7.93;;
41689;SDS011;27372;42.658;23.256;2024-01-10T11:26:30;16.33;;;8.10;;
41689;SDS011;27372;42.658;23.256;2024-01-10T11:28:57;16.60;;;7.30;;
41689;SDS011;27372;42.658;23.256;2024-01-10T11:31:30;10.32;;;6.45;;
41689;SDS011;27372;42.658;23.256;2024-01-10T11:33:57;10.05;;;6.60;;
41689;SDS011;27372;42.658;23.256;2024-01-10T11:36:23;11.77;;;7.93;;
41689;SDS011;27372;42.658;23.256;2024-01-10T11:46:33;12.65;;;8.50;;
41689;SDS011;27372;42.658;23.256;2024-01-10T11:48:59;12.13;;;7.88;;
41689;SDS011;27372;42.658;23.256;2024-01-10T11:51:25;10.65;;;7.03;;
41689;SDS011;27372;42.658;23.256;2024-01-10T11:53:50;13.80;;;7.35;;
41689;SDS011;27372;42.658;23.256;2024-01-10T11:56:18;13.43;;;7.30;;
41689;SDS011;27372;42.658;23.256;2024-01-10T11:58:53;13.20;;;7.20;;
41689;SDS011;27372;42.658;23.256;2024-01-10T12:01:20;13.38;;;7.65;;
41689;SDS011;27372;42.658;23.256;2024-01-10T12:03:47;17.35;;;9.68;;
41689;SDS011;27372;42.658;23.256;2024-01-10T12:06:15;14.55;;;8.80;;
41689;SDS011;27372;42.658;23.256;2024-01-10T12:08:41;13.57;;;8.23;;
41689;SDS011;27372;42.658;23.256;2024-01-10T12:11:07;12.93;;;8.30;;
41689;SDS011;27372;42.658;23.256;2024-01-10T12:13:33;15.73;;;8.10;;
41689;SDS011;27372;42.658;23.256;2024-01-10T12:15:59;12.05;;;8.40;;
41689;SDS011;27372;42.658;23.256;2024-01-10T12:18:25;16.00;;;8.70;;
41689;SDS011;27372;42.658;23.256;2024-01-10T12:20:51;14.30;;;8.50;;
41689;SDS011;27372;42.658;23.256;2024-01-10T12:23:16;13.70;;;8.45;;
41689;SDS011;27372;42.658;23.256;2024-01-10T12:25:42;13.20;;;8.88;;
41689;SDS011;27372;42.658;23.256;2024-01-10T12:28:07;19.13;;;9.13;;
41689;SDS011;27372;42.658;23.256;2024-01-10T12:30:33;17.25;;;9.02;;
41689;SDS011;27372;42.658;23.256;2024-01-10T12:32:59;14.10;;;8.57;;
41689;SDS011;27372;42.658;23.256;2024-01-10T12:35:25;14.52;;;9.10;;
41689;SDS011;27372;42.658;23.256;2024-01-10T12:37:54;19.70;;;9.73;;
41689;SDS011;27372;42.658;23.256;2024-01-10T12:40:23;15.85;;;9.82;;
41689;SDS011;27372;42.658;23.256;2024-01-10T12:42:48;20.15;;;11.95;;
41689;SDS011;27372;42.658;23.256;2024-01-10T12:45:20;17.45;;;10.10;;
41689;SDS011;27372;42.658;23.256;2024-01-10T12:47:47;19.25;;;10.18;;
41689;SDS011;27372;42.658;23.256;2024-01-10T12:50:12;19.77;;;10.82;;
41689;SDS011;27372;42.658;23.256;2024-01-10T12:52:38;19.55;;;9.77;;
41689;SDS011;27372;42.658;23.256;2024-01-10T12:55:05;18.02;;;10.02;;
41689;SDS011;27372;42.658;23.256;2024-01-10T12:57:31;21.33;;;9.63;;
41689;SDS011;27372;42.658;23.256;2024-01-10T12:59:56;28.45;;;16.85;;
41689;SDS011;27372;42.658;23.256;2024-01-10T13:02:22;20.50;;;11.30;;
41689;SDS011;27372;42.658;23.256;2024-01-10T13:04:47;17.92;;;10.27;;
41689;SDS011;27372;42.658;23.256;2024-01-10T13:07:13;18.90;;;10.38;;
41689;SDS011;27372;42.658;23.256;2024-01-10T13:09:38;21.70;;;10.48;;
41689;SDS011;27372;42.658;23.256;2024-01-10T13:12:04;19.95;;;10.50;;
41689;SDS011;27372;42.658;23.256;2024-01-10T13:14:30;17.27;;;10.30;;
41689;SDS011;27372;42.658;23.256;2024-01-10T13:16:56;19.20;;;9.82;;
41689;SDS011;27372;42.658;23.256;2024-01-10T13:19:22;25.08;;;10.65;;
41689;SDS011;27372;42.658;23.256;2024-01-10T13:21:47;19.73;;;10.27;;
41689;SDS011;27372;42.658;23.256;2024-01-10T13:24:12;20.60;;;9.90;;
41689;SDS011;27372;42.658;23.256;2024-01-10T13:26:38;18.35;;;9.90;;
41689;SDS011;27372;42.658;23.256;2024-01-10T13:29:03;16.30;;;9.45;;
41689;SDS011;27372;42.658;23.256;2024-01-10T13:31:29;18.98;;;9.70;;
41689;SDS011;27372;42.658;23.256;2024-01-10T13:33:54;17.38;;;10.07;;
41689;SDS011;27372;42.658;23.256;2024-01-10T13:36:20;18.75;;;10.70;;
41689;SDS011;27372;42.658;23.256;2024-01-10T13:38:45;17.48;;;10.65;;
41689;SDS011;27372;42.658;23.256;2024-01-10T13:41:11;25.75;;;11.10;;
41689;SDS011;27372;42.658;23.256;2024-01-10T13:43:36;21.27;;;10.68;;
41689;SDS011;27372;42.658;23.256;2024-01-10T13:46:02;20.40;;;11.00;;
41689;SDS011;27372;42.658;23.256;2024-01-10T13:48:28;21.88;;;12.43;;
41689;SDS011;27372;42.658;23.256;2024-01-10T13:50:54;24.00;;;14.20;;
41689;SDS011;27372;42.658;23.256;2024-01-10T13:53:19;31.73;;;16.58;;
41689;SDS011;27372;42.658;23.256;2024-01-10T13:55:45;22.25;;;12.60;;
41689;SDS011;27372;42.658;23.256;2024-01-10T13:58:11;24.10;;;12.73;;
41689;SDS011;27372;42.658;23.256;2024-01-10T14:00:37;19.17;;;11.90;;
41689;SDS011;27372;42.658;23.256;2024-01-10T14:03:05;22.35;;;12.52;;
41689;SDS011;27372;42.658;23.256;2024-01-10T14:05:31;22.02;;;12.35;;
41689;SDS011;27372;42.658;23.256;2024-01-10T14:07:56;22.75;;;12.05;;
41689;SDS011;27372;42.658;23.256;2024-01-10T14:10:22;30.73;;;18.35;;
41689;SDS011;27372;42.658;23.256;2024-01-10T14:12:48;25.13;;;13.90;;
41689;SDS011;27372;42.658;23.256;2024-01-10T14:15:13;25.55;;;14.75;;
41689;SDS011;27372;42.658;23.256;2024-01-10T14:17:39;28.25;;;14.50;;
41689;SDS011;27372;42.658;23.256;2024-01-10T14:20:06;43.17;;;22.30;;
41689;SDS011;27372;42.658;23.256;2024-01-10T14:22:34;52.85;;;26.27;;
41689;SDS011;27372;42.658;23.256;2024-01-10T14:25:01;49.17;;;23.67;;
41689;SDS011;27372;42.658;23.256;2024-01-10T14:27:26;45.63;;;22.38;;
41689;SDS011;27372;42.658;23.256;2024-01-10T14:29:51;33.78;;;17.05;;
41689;SDS011;27372;42.658;23.256;2024-01-10T14:32:17;35.88;;;16.75;;
41689;SDS011;27372;42.658;23.256;2024-01-10T14:34:43;36.97;;;17.20;;
41689;SDS011;27372;42.658;23.256;2024-01-10T14:37:09;39.00;;;18.15;;
41689;SDS011;27372;42.658;23.256;2024-01-10T14:39:35;31.98;;;14.93;;
41689;SDS011;27372;42.658;23.256;2024-01-10T14:42:04;29.58;;;13.65;;
41689;SDS011;27372;42.658;23.256;2024-01-10T14:44:31;34.65;;;16.45;;